createdAt,value
2023-02-03T00:02:41.413Z,6.40
2023-02-03T00:08:08.625Z,5.93
2023-02-03T00:13:34.013Z,5.43
2023-02-03T00:19:01.701Z,5.60
2023-02-03T00:24:26.126Z,6.50
2023-02-03T00:29:51.560Z,7.28
2023-02-03T00:35:17.677Z,6.50
2023-02-03T00:40:42.002Z,6.53
2023-02-03T00:46:07.840Z,5.50
2023-02-03T00:51:32.926Z,5.55
2023-02-03T00:56:58.120Z,5.60
2023-02-03T01:02:24.667Z,6.15
2023-02-03T01:07:51.696Z,6.57
2023-02-03T01:13:17.850Z,6.40
2023-02-03T01:18:46.487Z,7.78
2023-02-03T01:24:11.175Z,6.50
2023-02-03T01:29:36.749Z,6.72
2023-02-03T01:35:03.136Z,6.05
2023-02-03T01:40:27.614Z,5.90
2023-02-03T01:45:52.407Z,5.95
2023-02-03T01:51:19.737Z,7.05
2023-02-03T01:56:55.364Z,7.18
2023-02-03T02:02:20.187Z,6.47
2023-02-03T02:07:47.652Z,7.05
2023-02-03T02:13:13.748Z,7.97
2023-02-03T02:18:54.778Z,7.18
2023-02-03T02:25:06.761Z,6.65
2023-02-03T02:30:44.486Z,7.10
2023-02-03T02:36:22.718Z,6.57
2023-02-03T02:41:53.249Z,7.03
2023-02-03T02:47:20.321Z,9.23
2023-02-03T02:52:51.146Z,9.25
2023-02-03T02:58:19.472Z,7.55
2023-02-03T03:03:45.316Z,10.18
2023-02-03T03:09:16.248Z,9.25
2023-02-03T03:14:49.684Z,10.82
2023-02-03T03:20:18.959Z,10.65
2023-02-03T03:25:48.232Z,11.20
2023-02-03T03:31:12.857Z,14.57
2023-02-03T03:36:43.944Z,21.38
2023-02-03T03:42:15.348Z,18.98
2023-02-03T03:47:43.439Z,13.30
2023-02-03T03:53:10.826Z,12.38
2023-02-03T03:58:41.619Z,13.33
2023-02-03T04:04:10.613Z,15.80
2023-02-03T04:09:36.720Z,14.35
2023-02-03T04:15:03.593Z,13.65
2023-02-03T04:20:29.354Z,17.17
2023-02-03T04:25:54.368Z,14.68
2023-02-03T04:31:19.513Z,10.82
2023-02-03T04:36:43.943Z,9.15
2023-02-03T04:42:08.806Z,8.40
2023-02-03T04:47:35.636Z,8.07
2023-02-03T04:53:00.602Z,8.65
2023-02-03T04:58:27.468Z,9.18
2023-02-03T05:03:56.416Z,7.70
2023-02-03T05:09:20.820Z,7.78
2023-02-03T05:14:45.358Z,9.10
2023-02-03T05:20:12.906Z,7.43
2023-02-03T05:25:38.184Z,10.45
2023-02-03T05:31:02.589Z,10.77
2023-02-03T05:36:28.729Z,11.80
2023-02-03T05:41:57.201Z,11.25
2023-02-03T05:47:22.523Z,9.70
2023-02-03T05:52:48.479Z,9.88
2023-02-03T05:58:13.786Z,7.47
2023-02-03T06:03:38.829Z,9.93
2023-02-03T06:09:06.020Z,10.27
2023-02-03T06:14:30.212Z,8.85
2023-02-03T06:19:55.800Z,7.32
2023-02-03T06:25:23.358Z,9.00
2023-02-03T06:30:46.887Z,9.10
2023-02-03T06:36:12.240Z,9.18
2023-02-03T06:41:41.143Z,9.63
2023-02-03T06:47:06.211Z,9.95
2023-02-03T06:52:31.239Z,10.55
2023-02-03T06:57:57.729Z,12.48
2023-02-03T07:03:22.945Z,11.73
2023-02-03T07:08:47.555Z,10.35
2023-02-03T07:14:13.307Z,10.50
2023-02-03T07:20:36.525Z,12.13
2023-02-03T07:26:59.464Z,11.93
2023-02-03T07:33:26.086Z,10.30
2023-02-03T07:39:49.402Z,9.23
2023-02-03T07:46:14.380Z,8.65
2023-02-03T07:52:39.457Z,12.05
2023-02-03T07:59:03.918Z,11.50
2023-02-03T08:05:26.963Z,6.93
2023-02-03T08:11:52.024Z,5.45
2023-02-03T08:18:15.292Z,6.07
2023-02-03T08:24:38.548Z,5.85
2023-02-03T08:31:03.650Z,6.32
2023-02-03T08:37:28.291Z,6.55
2023-02-03T08:43:51.456Z,6.70
2023-02-03T08:50:17.447Z,5.45
2023-02-03T08:56:40.933Z,5.75
2023-02-03T09:03:04.942Z,5.07
2023-02-03T09:09:30.899Z,5.97
2023-02-03T09:15:54.344Z,5.20
2023-02-03T09:22:20.128Z,5.38
2023-02-03T09:28:45.048Z,5.43
2023-02-03T09:35:08.363Z,6.80
2023-02-03T09:41:46.017Z,5.80
2023-02-03T09:48:15.827Z,5.22
2023-02-03T09:54:47.304Z,5.32
2023-02-03T10:01:20.161Z,6.13
2023-02-03T10:07:52.026Z,5.50
2023-02-03T10:14:29.964Z,5.47
2023-02-03T10:21:00.013Z,5.45
2023-02-03T10:27:26.761Z,5.18
2023-02-03T10:33:56.066Z,5.07
2023-02-03T10:40:23.757Z,4.00
2023-02-03T10:46:49.327Z,2.80
2023-02-03T10:53:26.260Z,3.75
2023-02-03T10:59:50.965Z,3.20
2023-02-03T11:06:22.456Z,3.13
2023-02-03T11:12:45.332Z,3.03
2023-02-03T11:19:23.638Z,3.63
2023-02-03T11:25:51.216Z,2.78
2023-02-03T11:32:23.604Z,3.25
2023-02-03T11:38:47.388Z,3.85
2023-02-03T11:45:16.051Z,3.50
2023-02-03T11:51:46.264Z,3.40
2023-02-03T11:58:33.652Z,3.80
2023-02-03T12:05:27.581Z,3.00
2023-02-03T12:12:28.248Z,2.97
2023-02-03T12:19:08.396Z,2.75
2023-02-03T12:25:42.683Z,3.47
2023-02-03T12:32:15.557Z,3.13
2023-02-03T12:38:46.161Z,4.72
2023-02-03T12:45:19.964Z,6.05
2023-02-03T12:51:48.292Z,4.97
2023-02-03T12:58:21.903Z,2.92
2023-02-03T13:04:55.999Z,4.35
2023-02-03T13:11:27.444Z,4.00
2023-02-03T13:17:56.555Z,4.32
2023-02-03T13:24:24.920Z,3.97
2023-02-03T13:31:10.369Z,4.50
2023-02-03T13:38:12.388Z,4.28
2023-02-03T13:44:39.769Z,4.68
2023-02-03T13:51:06.377Z,5.00
2023-02-03T13:57:34.498Z,4.35
2023-02-03T14:03:59.189Z,5.03
2023-02-03T14:10:24.363Z,5.03
2023-02-03T14:17:29.705Z,4.55
2023-02-03T14:24:00.558Z,4.20
2023-02-03T14:30:25.479Z,5.73
2023-02-03T14:36:54.962Z,7.45
2023-02-03T14:43:34.895Z,5.90
2023-02-03T14:50:13.567Z,5.35
2023-02-03T14:57:04.613Z,5.15
2023-02-03T15:03:31.301Z,4.65
2023-02-03T15:09:57.041Z,4.57
2023-02-03T15:16:22.756Z,5.43
2023-02-03T15:22:46.921Z,5.57
2023-02-03T15:29:21.915Z,6.22
2023-02-03T15:35:47.418Z,6.40
2023-02-03T15:42:23.120Z,7.22
2023-02-03T15:48:50.764Z,7.40
2023-02-03T15:55:20.947Z,7.55
2023-02-03T16:01:49.255Z,7.53
2023-02-03T16:08:35.180Z,8.02
2023-02-03T16:15:00.383Z,7.45
2023-02-03T16:21:31.351Z,6.88
2023-02-03T16:28:14.848Z,10.00
2023-02-03T16:34:55.597Z,10.55
2023-02-03T16:41:39.360Z,8.75
2023-02-03T16:48:19.792Z,9.93
2023-02-03T16:54:42.679Z,8.65
2023-02-03T17:01:09.699Z,9.18
2023-02-03T17:07:32.680Z,8.15
2023-02-03T17:13:55.767Z,8.77
2023-02-03T17:20:19.826Z,10.38
2023-02-03T17:26:45.888Z,9.63
2023-02-03T17:33:13.038Z,11.18
2023-02-03T17:59:28.562Z,11.30
2023-02-03T18:05:52.079Z,7.43
2023-02-03T18:12:17.221Z,6.05
2023-02-03T18:18:42.244Z,5.55
2023-02-03T18:25:06.197Z,5.20
2023-02-03T18:31:28.888Z,5.47
2023-02-03T18:37:53.492Z,5.90
2023-02-03T18:44:16.250Z,6.03
2023-02-03T18:50:41.408Z,6.28
2023-02-03T18:57:07.202Z,6.32
2023-02-03T19:03:33.181Z,7.97
2023-02-03T19:09:57.273Z,10.63
2023-02-03T19:16:21.565Z,10.27
2023-02-03T19:22:46.150Z,10.85
2023-02-03T19:29:11.391Z,11.55
2023-02-03T19:35:35.960Z,12.70
2023-02-03T19:41:58.509Z,11.48
2023-02-03T19:48:22.034Z,14.10
2023-02-03T19:54:45.934Z,14.85
2023-02-03T20:01:10.206Z,18.35
2023-02-03T20:07:33.872Z,21.15
2023-02-03T20:13:57.904Z,19.65
2023-02-03T20:20:21.052Z,18.98
2023-02-03T20:26:44.278Z,19.27
2023-02-03T20:33:08.609Z,14.80
2023-02-03T20:39:32.065Z,14.38
2023-02-03T20:45:56.591Z,12.93
2023-02-03T20:52:24.027Z,14.60
2023-02-03T20:58:47.124Z,12.52
2023-02-03T21:05:24.103Z,14.98
2023-02-03T21:11:48.733Z,14.25
2023-02-03T21:18:39.460Z,14.70
2023-02-03T21:25:24.988Z,12.68
2023-02-03T21:31:50.169Z,13.98
2023-02-03T21:38:29.017Z,10.57
2023-02-03T21:44:53.495Z,11.35
2023-02-03T21:51:28.288Z,11.98
2023-02-03T21:57:51.344Z,13.07
2023-02-03T22:04:17.124Z,14.25
2023-02-03T22:10:41.114Z,13.50
2023-02-03T22:17:04.547Z,13.35
2023-02-03T22:23:27.829Z,12.23
2023-02-03T22:29:56.348Z,11.82
2023-02-03T22:36:19.948Z,12.95
2023-02-03T22:42:43.509Z,12.18
2023-02-03T22:49:07.511Z,11.43
2023-02-03T22:55:32.417Z,11.20
2023-02-03T23:01:55.765Z,13.07
2023-02-03T23:08:20.126Z,12.38
2023-02-03T23:14:43.239Z,13.60
2023-02-03T23:21:06.819Z,14.68
2023-02-03T23:27:31.605Z,15.63
2023-02-03T23:34:13.786Z,16.02
2023-02-03T23:40:36.373Z,19.85
2023-02-03T23:47:00.371Z,16.48
2023-02-03T23:53:24.171Z,15.75
2023-02-03T23:59:47.153Z,17.63
